< Cyclone 198306 1983 Season Cyclone 198401 >
Cyclone 198307 (MONTY)
General InformationTrack Information on Google MapsList of All Images || ResourceGoogle EarthGE AnimationAtom FeedGeoJSON
Detalied Best Track (Time Zone = UTC)
Year Month Day Hour Lat. Long. Pressure (hPa) Wind (kt) Class Image Chart
1983 4 22 06 -9.7 96.0 1004 0 0 Image --
1983 4 22 12 -9.6 96.6 1003 0 0 Image --
1983 4 22 18 -9.6 97.2 1007 0 0 Image --
1983 4 23 00 -9.6 97.7 1002 0 0 Image --
1983 4 23 06 -9.7 98.6 1000 0 0 Image --
1983 4 23 12 -10.1 99.6 998 0 0 Image --
1983 4 23 18 -10.5 100.5 994 0 0 Image --
1983 4 24 00 -11.0 101.5 990 0 0 Image --
1983 4 24 06 -11.6 102.2 985 0 0 Image --
1983 4 24 12 -12.5 102.6 982 0 0 Image --
1983 4 24 18 -13.4 102.9 979 0 0 Image --
1983 4 25 00 -14.2 103.4 977 0 0 Image --
1983 4 25 06 -15.2 103.7 975 0 0 Image --
1983 4 25 12 -16.1 103.7 975 0 0 Image --
1983 4 25 18 -16.8 103.7 975 0 0 Image --
1983 4 26 00 -18.0 103.7 975 0 0 Image --
1983 4 26 06 -19.0 103.8 975 0 0 Image --
1983 4 26 12 -19.8 104.0 977 0 0 Image --
1983 4 26 18 -20.7 104.9 979 0 0 Image --
1983 4 27 00 -21.4 105.6 982 0 0 Image --
1983 4 27 06 -21.9 106.1 985 0 0 Image --
1983 4 27 12 -22.6 106.7 990 0 0 Image --
1983 4 27 18 -23.4 107.2 994 0 0 Image --
1983 4 28 00 -24.3 107.3 1000 0 0 Image --
1983 4 28 06 -25.1 107.3 1002 0 0 Image --
1983 4 28 12 -25.4 107.2 1005 0 0 Image --
1983 4 28 18 -25.9 106.9 1007 0 0 Image --
1983 4 29 00 -26.3 106.8 1008 0 0 Image --
1983 4 29 06 -27.2 106.3 1010 0 0 Image --
1983 4 29 12 -27.9 106.0 1010 0 0 Image --
< Cyclone 198306 1983 Season Cyclone 198401 >

Help